西安 の空港の天気 - METARとTAF

西安咸陽国際空港 ( ZLXY / XIY ) - 中国 陝西省西安市
飛行場実況気象(Metar)
観測時間11/18 19:00 CST (11/18 11:00 UTC)
風向・風速北 2m/s
視程10km以上
天気現象
なし
気温4℃
湿度52%
気圧1028hPa
METARZLXY 181100Z 35002MPS CAVOK 04/M05 Q1028 NOSIG
過去の天気等 Google飛行場航空写真 Wunderground天気予報

過去48時間のMETAR

飛行場予報(TAF)
発表時間: 11/18 17:22 CST (11/18 09:22 UTC)
予報対象時間: 18日20時 CST ~ 19日20時 CST
風向・風速北東 3m/s
視程3,000m
天気現象煙霧
なし
19日4時 CST ~ 19日10時 CST に一時的に
視程2,400m
天気現象弱い雨雪
TAF ZLXY 180922Z 1812/1912 05003MPS 3000 HZ NSC TX05/1907Z TN00/1823Z
TEMPO 1820/1902 2400 -RASN